Terminal Aerodrome Forecast
Issued by NWS

Home | Current Version | Previous Version | Graphics & Text | Print | Product List | Glossary On
Versions: 1 2 3 4 5 6 7 8 9 10 11 12 13 14 15 16 17 18
000
FTUS43 KICT 180538 AAA
TAFHUT
TAF AMD
KHUT 180538Z 1806/1906 31035G48KT 4SM BLDU BKN015
      TEMPO 1806/1808 P6SM NSW SCT015
     FM180800 32026G35KT P6SM SKC
     FM182200 34017G26KT P6SM SKC
     FM190200 36009KT P6SM SKC=

USA.gov is the U.S. government's official web portal to all federal, state and local government web resources and services.